Abbyville, KS (67510)

8:50 AM CDT on September 03, 2015 (GMT -0500)
APRSWXNET | | Change Station
CLOSE
Current Station
Personal Weather Station
Location: Abbyville, KS
Elevation: 1669 ft
Nearby Weather Stations

Elev 1669 ft 38.09 °N, 98.22 °W | Updated 25 minutes ago

Clear
Clear
74 °F
Feels Like 76 °F
N
7
Wind Variable Wind from SSE
Gusts 0.0 mph

Today
High -- | Low -- °F
--% Chance of Precip.
Yesterday
High -- | Low -- °F
Precip. -- in
7:04 AM 7:59 PM
Waning Gibbous, 70% visible
Pressure 29.86 in
Visibility 10.0 miles
Clouds Clear
Heat Index 76 °F
Dew Point 62 °F
Humidity 67%
Rainfall in
Snow Depth Not available.
UV 0 out of 12
Pollen 11.70 out of 12
Air Quality Not available.
Flu Activity Not available.
METAR KHUT 031252Z 14007KT 10SM CLR 22/17 A2993 RMK AO2 SLP110 T02220167
Pressure 29.86 in
Visibility 10.0 miles
Clouds Clear
Heat Index 76 °F
Dew Point 62 °F
Humidity 67%
Rainfall in
Snow Depth Not available.
UV 0 out of 12
Pollen 11.70 out of 12
Air Quality Not available.
Flu Activity Not available.
METAR KHUT 031252Z 14007KT 10SM CLR 22/17 A2993 RMK AO2 SLP110 T02220167

10-Day Weather Forecast

×

Almanac

Astronomy

Sep. 03, 2015 Rise Set
Actual Time
Civil Twilight
Nautical Twilight
Astronomical Twilight
Moon
Length of Visible Light
Length of Day
Tomorrow will be .
, % of the Moon is Illuminated

Today's Extremes

State Highs State Lows

Community

WunderPhotos

Upload Photos

1,851,952 photos uploaded!

WunderBlogs® & News

Nearby

Air Quality

  Air Quality AQ Index Pollutant
Not available.

Snow Depth

Station Depth Elevation

Earthquake Activity

City Distance Mag. Time & Date
Minimum magnitude displayed is 2.5.

Coastal Water Temperatures

Place Temperature

Stations

Nearby Weather Stations

Station Location Temp. Windchill Dew Point Humidity Wind Precip. Elev Updated Type